sensor_id;sensor_type;location;lat;lon;timestamp;pressure;altitude;pressure_sealevel;temperature;humidity
16595;BME280;8410;52.532;13.336;2023-11-19T00:00:08;101107.50;;;11.50;68.11
16595;BME280;8410;52.532;13.336;2023-11-19T00:02:39;101102.25;;;10.90;67.90
16595;BME280;8410;52.532;13.336;2023-11-19T00:05:08;101080.97;;;10.99;69.75
16595;BME280;8410;52.532;13.336;2023-11-19T00:07:38;101075.44;;;11.31;68.56
16595;BME280;8410;52.532;13.336;2023-11-19T00:10:08;101066.00;;;11.33;67.31
16595;BME280;8410;52.532;13.336;2023-11-19T00:12:37;101061.31;;;10.54;69.75
16595;BME280;8410;52.532;13.336;2023-11-19T00:15:06;101063.72;;;10.95;67.60
16595;BME280;8410;52.532;13.336;2023-11-19T00:17:37;101059.88;;;11.24;68.35
16595;BME280;8410;52.532;13.336;2023-11-19T00:20:09;101050.16;;;10.53;69.59
16595;BME280;8410;52.532;13.336;2023-11-19T00:22:36;101048.34;;;11.01;67.64
16595;BME280;8410;52.532;13.336;2023-11-19T00:25:15;101046.88;;;10.64;68.02
16595;BME280;8410;52.532;13.336;2023-11-19T00:27:42;101040.03;;;10.64;68.88
16595;BME280;8410;52.532;13.336;2023-11-19T00:30:11;101031.03;;;10.91;68.60
16595;BME280;8410;52.532;13.336;2023-11-19T00:32:40;101033.50;;;10.83;67.88
16595;BME280;8410;52.532;13.336;2023-11-19T00:35:09;101020.91;;;11.01;68.99
16595;BME280;8410;52.532;13.336;2023-11-19T00:37:37;101017.06;;;11.34;68.40
16595;BME280;8410;52.532;13.336;2023-11-19T00:40:06;101015.03;;;10.57;68.66
16595;BME280;8410;52.532;13.336;2023-11-19T00:42:34;101011.84;;;9.79;69.23
16595;BME280;8410;52.532;13.336;2023-11-19T00:45:02;100990.50;;;10.27;70.55
16595;BME280;8410;52.532;13.336;2023-11-19T00:47:30;100989.41;;;10.66;68.14
16595;BME280;8410;52.532;13.336;2023-11-19T00:49:58;100974.13;;;10.75;68.43
16595;BME280;8410;52.532;13.336;2023-11-19T00:52:27;100967.53;;;10.96;67.96
16595;BME280;8410;52.532;13.336;2023-11-19T00:54:54;100969.66;;;11.24;68.57
16595;BME280;8410;52.532;13.336;2023-11-19T00:57:23;100958.84;;;10.88;68.15
16595;BME280;8410;52.532;13.336;2023-11-19T00:59:52;100951.69;;;11.29;67.85
16595;BME280;8410;52.532;13.336;2023-11-19T01:02:20;100936.41;;;11.41;66.43
16595;BME280;8410;52.532;13.336;2023-11-19T01:04:47;100938.84;;;10.18;70.20
16595;BME280;8410;52.532;13.336;2023-11-19T01:07:15;100938.91;;;10.74;69.30
16595;BME280;8410;52.532;13.336;2023-11-19T01:09:44;100929.53;;;10.79;69.83
16595;BME280;8410;52.532;13.336;2023-11-19T01:12:11;100908.63;;;11.19;68.11
16595;BME280;8410;52.532;13.336;2023-11-19T01:14:39;100891.19;;;11.01;67.95
16595;BME280;8410;52.532;13.336;2023-11-19T01:17:06;100877.88;;;10.67;69.08
16595;BME280;8410;52.532;13.336;2023-11-19T01:19:35;100874.22;;;11.15;67.58
16595;BME280;8410;52.532;13.336;2023-11-19T01:22:03;100881.72;;;10.97;68.89
16595;BME280;8410;52.532;13.336;2023-11-19T01:24:29;100863.91;;;11.17;66.95
16595;BME280;8410;52.532;13.336;2023-11-19T01:26:59;100864.81;;;11.17;66.88
16595;BME280;8410;52.532;13.336;2023-11-19T01:29:27;100872.97;;;10.82;68.58
16595;BME280;8410;52.532;13.336;2023-11-19T01:31:54;100866.50;;;10.53;68.55
16595;BME280;8410;52.532;13.336;2023-11-19T01:34:22;100858.50;;;10.95;67.89
16595;BME280;8410;52.532;13.336;2023-11-19T01:36:49;100850.31;;;11.25;67.02
16595;BME280;8410;52.532;13.336;2023-11-19T01:39:17;100849.59;;;10.72;66.93
16595;BME280;8410;52.532;13.336;2023-11-19T01:41:46;100827.44;;;10.80;67.54
16595;BME280;8410;52.532;13.336;2023-11-19T01:44:15;100817.69;;;10.59;67.85
16595;BME280;8410;52.532;13.336;2023-11-19T01:46:44;100811.41;;;9.85;68.63
16595;BME280;8410;52.532;13.336;2023-11-19T01:49:14;100802.63;;;10.90;68.36
16595;BME280;8410;52.532;13.336;2023-11-19T01:51:43;100803.09;;;10.02;70.73
16595;BME280;8410;52.532;13.336;2023-11-19T01:54:11;100795.56;;;10.73;66.86
16595;BME280;8410;52.532;13.336;2023-11-19T01:56:39;100785.50;;;10.92;68.28
16595;BME280;8410;52.532;13.336;2023-11-19T01:59:09;100797.56;;;9.77;69.98
16595;BME280;8410;52.532;13.336;2023-11-19T02:01:41;100782.63;;;10.67;69.76
16595;BME280;8410;52.532;13.336;2023-11-19T02:04:09;100781.41;;;10.41;69.02
16595;BME280;8410;52.532;13.336;2023-11-19T02:06:40;100767.34;;;10.20;69.57
16595;BME280;8410;52.532;13.336;2023-11-19T02:09:08;100744.63;;;9.91;71.91
16595;BME280;8410;52.532;13.336;2023-11-19T02:11:36;100724.34;;;10.75;69.75
16595;BME280;8410;52.532;13.336;2023-11-19T02:14:03;100705.66;;;10.92;68.10
16595;BME280;8410;52.532;13.336;2023-11-19T02:16:31;100700.38;;;10.81;69.88
16595;BME280;8410;52.532;13.336;2023-11-19T02:19:00;100696.94;;;10.77;69.23
16595;BME280;8410;52.532;13.336;2023-11-19T02:21:28;100689.66;;;11.23;68.08
16595;BME280;8410;52.532;13.336;2023-11-19T02:23:56;100683.69;;;11.29;67.45
16595;BME280;8410;52.532;13.336;2023-11-19T02:26:39;100688.81;;;11.26;68.86
16595;BME280;8410;52.532;13.336;2023-11-19T02:29:08;100686.69;;;10.85;67.93
16595;BME280;8410;52.532;13.336;2023-11-19T02:31:36;100679.78;;;10.81;67.57
16595;BME280;8410;52.532;13.336;2023-11-19T02:34:03;100676.88;;;9.88;71.17
16595;BME280;8410;52.532;13.336;2023-11-19T02:36:32;100668.31;;;10.51;69.71
16595;BME280;8410;52.532;13.336;2023-11-19T02:38:59;100653.66;;;10.46;69.07
16595;BME280;8410;52.532;13.336;2023-11-19T02:41:27;100646.09;;;10.61;68.85
16595;BME280;8410;52.532;13.336;2023-11-19T02:43:55;100643.69;;;10.79;69.19
16595;BME280;8410;52.532;13.336;2023-11-19T02:46:24;100650.94;;;11.17;68.07
16595;BME280;8410;52.532;13.336;2023-11-19T02:48:52;100643.28;;;11.26;68.02
16595;BME280;8410;52.532;13.336;2023-11-19T02:51:20;100631.09;;;11.09;69.73
16595;BME280;8410;52.532;13.336;2023-11-19T02:53:48;100626.03;;;11.18;68.50
16595;BME280;8410;52.532;13.336;2023-11-19T02:56:15;100607.34;;;11.45;67.96
16595;BME280;8410;52.532;13.336;2023-11-19T02:58:46;100594.91;;;10.92;67.53
16595;BME280;8410;52.532;13.336;2023-11-19T03:01:21;100589.56;;;10.70;69.96
16595;BME280;8410;52.532;13.336;2023-11-19T03:03:57;100589.91;;;11.10;68.28
16595;BME280;8410;52.532;13.336;2023-11-19T03:06:25;100581.34;;;11.13;68.28
16595;BME280;8410;52.532;13.336;2023-11-19T03:08:54;100584.19;;;11.54;68.25
16595;BME280;8410;52.532;13.336;2023-11-19T03:11:21;100597.00;;;11.42;67.06
16595;BME280;8410;52.532;13.336;2023-11-19T03:13:49;100599.72;;;11.63;67.10
16595;BME280;8410;52.532;13.336;2023-11-19T03:16:17;100591.84;;;11.42;67.63
16595;BME280;8410;52.532;13.336;2023-11-19T03:18:44;100590.06;;;11.33;68.12
16595;BME280;8410;52.532;13.336;2023-11-19T03:21:13;100602.25;;;11.57;67.96
16595;BME280;8410;52.532;13.336;2023-11-19T03:23:41;100602.16;;;11.39;67.57
16595;BME280;8410;52.532;13.336;2023-11-19T03:26:10;100594.63;;;11.71;67.86
16595;BME280;8410;52.532;13.336;2023-11-19T03:28:37;100589.16;;;11.23;69.22
16595;BME280;8410;52.532;13.336;2023-11-19T03:31:05;100576.41;;;11.48;67.68
16595;BME280;8410;52.532;13.336;2023-11-19T03:33:34;100564.75;;;10.78;70.13
16595;BME280;8410;52.532;13.336;2023-11-19T03:36:04;100547.25;;;11.55;69.65
16595;BME280;8410;52.532;13.336;2023-11-19T03:38:33;100541.00;;;10.23;71.42
16595;BME280;8410;52.532;13.336;2023-11-19T03:41:01;100528.13;;;11.19;72.77
16595;BME280;8410;52.532;13.336;2023-11-19T03:43:30;100527.13;;;10.97;72.14
16595;BME280;8410;52.532;13.336;2023-11-19T03:45:59;100521.94;;;10.91;72.00
16595;BME280;8410;52.532;13.336;2023-11-19T03:48:27;100521.03;;;10.86;72.50
16595;BME280;8410;52.532;13.336;2023-11-19T03:50:54;100522.00;;;11.02;73.46
16595;BME280;8410;52.532;13.336;2023-11-19T03:53:22;100501.44;;;11.11;72.57
16595;BME280;8410;52.532;13.336;2023-11-19T03:55:52;100506.88;;;10.40;76.38
16595;BME280;8410;52.532;13.336;2023-11-19T03:58:19;100491.59;;;9.74;76.37
16595;BME280;8410;52.532;13.336;2023-11-19T04:00:47;100463.84;;;10.26;76.19
16595;BME280;8410;52.532;13.336;2023-11-19T04:03:14;100465.34;;;10.00;77.64
16595;BME280;8410;52.532;13.336;2023-11-19T04:05:42;100467.53;;;10.53;76.89
16595;BME280;8410;52.532;13.336;2023-11-19T04:08:09;100455.72;;;10.76;74.48
16595;BME280;8410;52.532;13.336;2023-11-19T04:10:37;100466.41;;;10.23;75.25
16595;BME280;8410;52.532;13.336;2023-11-19T04:13:06;100457.00;;;10.25;77.47
16595;BME280;8410;52.532;13.336;2023-11-19T04:15:33;100434.28;;;10.79;75.37
16595;BME280;8410;52.532;13.336;2023-11-19T04:18:01;100423.34;;;11.12;74.61
16595;BME280;8410;52.532;13.336;2023-11-19T04:20:29;100425.06;;;11.16;74.15
16595;BME280;8410;52.532;13.336;2023-11-19T04:22:58;100419.69;;;10.78;74.46
16595;BME280;8410;52.532;13.336;2023-11-19T04:25:26;100412.97;;;11.06;74.54
16595;BME280;8410;52.532;13.336;2023-11-19T04:27:55;100411.19;;;10.93;74.10
16595;BME280;8410;52.532;13.336;2023-11-19T04:30:24;100414.59;;;10.89;75.34
16595;BME280;8410;52.532;13.336;2023-11-19T04:32:51;100415.88;;;10.28;77.52
16595;BME280;8410;52.532;13.336;2023-11-19T04:35:19;100408.75;;;11.22;76.11
16595;BME280;8410;52.532;13.336;2023-11-19T04:37:46;100417.25;;;11.02;75.78
16595;BME280;8410;52.532;13.336;2023-11-19T04:40:14;100417.31;;;11.13;75.89
16595;BME280;8410;52.532;13.336;2023-11-19T04:42:44;100416.59;;;11.51;74.81
16595;BME280;8410;52.532;13.336;2023-11-19T04:45:12;100408.84;;;11.46;73.84
16595;BME280;8410;52.532;13.336;2023-11-19T04:47:41;100396.75;;;11.30;74.76
16595;BME280;8410;52.532;13.336;2023-11-19T04:50:09;100395.03;;;11.24;73.88
16595;BME280;8410;52.532;13.336;2023-11-19T04:52:37;100390.72;;;11.19;75.06
16595;BME280;8410;52.532;13.336;2023-11-19T04:55:07;100391.63;;;11.33;74.20
16595;BME280;8410;52.532;13.336;2023-11-19T04:57:35;100382.22;;;11.49;73.45
16595;BME280;8410;52.532;13.336;2023-11-19T05:00:04;100378.75;;;11.35;75.14
16595;BME280;8410;52.532;13.336;2023-11-19T05:02:44;100363.16;;;11.02;75.80
16595;BME280;8410;52.532;13.336;2023-11-19T05:05:12;100366.66;;;11.15;75.84
16595;BME280;8410;52.532;13.336;2023-11-19T05:07:39;100344.28;;;11.08;74.93
16595;BME280;8410;52.532;13.336;2023-11-19T05:10:08;100337.50;;;11.35;75.96
16595;BME280;8410;52.532;13.336;2023-11-19T05:12:35;100335.69;;;11.06;74.65
16595;BME280;8410;52.532;13.336;2023-11-19T05:15:04;100322.03;;;9.82;78.81
16595;BME280;8410;52.532;13.336;2023-11-19T05:17:31;100310.59;;;10.64;78.20
16595;BME280;8410;52.532;13.336;2023-11-19T05:20:01;100304.75;;;10.91;77.27
16595;BME280;8410;52.532;13.336;2023-11-19T05:22:28;100304.59;;;10.66;76.16
16595;BME280;8410;52.532;13.336;2023-11-19T05:24:56;100309.91;;;10.97;76.71
16595;BME280;8410;52.532;13.336;2023-11-19T05:27:23;100306.53;;;11.22;76.02
16595;BME280;8410;52.532;13.336;2023-11-19T05:29:53;100303.16;;;11.40;74.93
16595;BME280;8410;52.532;13.336;2023-11-19T05:32:20;100291.97;;;11.32;75.53
16595;BME280;8410;52.532;13.336;2023-11-19T05:34:48;100286.84;;;11.43;75.38
16595;BME280;8410;52.532;13.336;2023-11-19T05:37:19;100297.13;;;11.27;75.67
16595;BME280;8410;52.532;13.336;2023-11-19T05:39:47;100286.78;;;11.15;76.27
16595;BME280;8410;52.532;13.336;2023-11-19T05:42:14;100261.00;;;11.04;75.96
16595;BME280;8410;52.532;13.336;2023-11-19T05:44:42;100257.63;;;11.32;76.42
16595;BME280;8410;52.532;13.336;2023-11-19T05:47:09;100250.69;;;11.06;76.20
16595;BME280;8410;52.532;13.336;2023-11-19T05:49:37;100236.16;;;11.23;76.54
16595;BME280;8410;52.532;13.336;2023-11-19T05:52:05;100249.03;;;11.46;75.99
16595;BME280;8410;52.532;13.336;2023-11-19T05:54:35;100252.34;;;10.87;75.41
16595;BME280;8410;52.532;13.336;2023-11-19T05:57:04;100234.97;;;10.35;77.31
16595;BME280;8410;52.532;13.336;2023-11-19T05:59:32;100236.56;;;10.18;79.30
16595;BME280;8410;52.532;13.336;2023-11-19T06:02:00;100224.09;;;11.13;77.81
16595;BME280;8410;52.532;13.336;2023-11-19T06:04:28;100234.38;;;11.09;76.69
16595;BME280;8410;52.532;13.336;2023-11-19T06:06:56;100232.72;;;11.40;77.72
16595;BME280;8410;52.532;13.336;2023-11-19T06:09:23;100232.72;;;11.40;77.42
16595;BME280;8410;52.532;13.336;2023-11-19T06:11:52;100232.47;;;10.48;77.32
16595;BME280;8410;52.532;13.336;2023-11-19T06:14:21;100216.38;;;11.16;77.75
16595;BME280;8410;52.532;13.336;2023-11-19T06:16:50;100210.38;;;11.30;76.50
16595;BME280;8410;52.532;13.336;2023-11-19T06:19:18;100205.19;;;11.03;76.06
16595;BME280;8410;52.532;13.336;2023-11-19T06:21:45;100196.66;;;11.55;76.31
16595;BME280;8410;52.532;13.336;2023-11-19T06:24:13;100200.91;;;11.44;75.22
16595;BME280;8410;52.532;13.336;2023-11-19T06:26:41;100201.78;;;11.43;76.00
16595;BME280;8410;52.532;13.336;2023-11-19T06:29:10;100193.19;;;11.44;77.32
16595;BME280;8410;52.532;13.336;2023-11-19T06:31:40;100181.16;;;11.67;75.24
16595;BME280;8410;52.532;13.336;2023-11-19T06:34:08;100179.97;;;10.18;78.54
16595;BME280;8410;52.532;13.336;2023-11-19T06:36:35;100169.16;;;11.39;77.48
16595;BME280;8410;52.532;13.336;2023-11-19T06:39:03;100169.13;;;11.91;75.79
16595;BME280;8410;52.532;13.336;2023-11-19T06:41:32;100157.97;;;11.69;74.77
16595;BME280;8410;52.532;13.336;2023-11-19T06:43:59;100175.84;;;10.46;77.85
16595;BME280;8410;52.532;13.336;2023-11-19T06:46:28;100181.03;;;10.54;79.64
16595;BME280;8410;52.532;13.336;2023-11-19T06:48:56;100180.22;;;10.72;78.84
16595;BME280;8410;52.532;13.336;2023-11-19T06:51:23;100165.72;;;11.43;77.25
16595;BME280;8410;52.532;13.336;2023-11-19T06:53:51;100172.56;;;11.75;76.96
16595;BME280;8410;52.532;13.336;2023-11-19T06:56:20;100187.97;;;10.90;77.93
16595;BME280;8410;52.532;13.336;2023-11-19T06:58:48;100186.84;;;10.16;79.66
16595;BME280;8410;52.532;13.336;2023-11-19T07:01:16;100174.94;;;10.30;80.93
16595;BME280;8410;52.532;13.336;2023-11-19T07:03:46;100160.56;;;11.58;77.87
16595;BME280;8410;52.532;13.336;2023-11-19T07:06:14;100167.41;;;11.59;74.78
16595;BME280;8410;52.532;13.336;2023-11-19T07:08:42;100155.38;;;11.89;76.25
16595;BME280;8410;52.532;13.336;2023-11-19T07:11:11;100160.50;;;11.83;75.74
16595;BME280;8410;52.532;13.336;2023-11-19T07:13:38;100166.56;;;11.89;74.94
16595;BME280;8410;52.532;13.336;2023-11-19T07:16:07;100177.69;;;11.95;75.51
16595;BME280;8410;52.532;13.336;2023-11-19T07:18:36;100180.31;;;11.61;77.30
16595;BME280;8410;52.532;13.336;2023-11-19T07:21:06;100175.13;;;11.85;76.19
16595;BME280;8410;52.532;13.336;2023-11-19T07:23:36;100171.66;;;12.05;74.77
16595;BME280;8410;52.532;13.336;2023-11-19T07:26:05;100163.09;;;12.01;75.76
16595;BME280;8410;52.532;13.336;2023-11-19T07:28:35;100164.81;;;11.70;76.87
16595;BME280;8410;52.532;13.336;2023-11-19T07:31:03;100161.41;;;11.89;75.21
16595;BME280;8410;52.532;13.336;2023-11-19T07:33:30;100153.63;;;12.06;75.56
16595;BME280;8410;52.532;13.336;2023-11-19T07:35:58;100155.34;;;11.92;77.00
16595;BME280;8410;52.532;13.336;2023-11-19T07:38:27;100172.50;;;12.14;75.55
16595;BME280;8410;52.532;13.336;2023-11-19T07:40:54;100155.19;;;12.44;74.64
16595;BME280;8410;52.532;13.336;2023-11-19T07:43:23;100161.19;;;12.46;75.27
16595;BME280;8410;52.532;13.336;2023-11-19T07:45:50;100162.13;;;12.24;75.34
16595;BME280;8410;52.532;13.336;2023-11-19T07:48:18;100160.38;;;12.38;75.54
16595;BME280;8410;52.532;13.336;2023-11-19T07:50:49;100161.34;;;12.06;74.59
16595;BME280;8410;52.532;13.336;2023-11-19T07:53:17;100160.44;;;12.21;75.50
16595;BME280;8410;52.532;13.336;2023-11-19T07:55:46;100157.03;;;12.11;75.15
16595;BME280;8410;52.532;13.336;2023-11-19T07:58:13;100156.91;;;12.42;74.78
16595;BME280;8410;52.532;13.336;2023-11-19T08:00:41;100163.78;;;12.40;76.21
16595;BME280;8410;52.532;13.336;2023-11-19T08:03:08;100153.38;;;12.63;75.70
16595;BME280;8410;52.532;13.336;2023-11-19T08:05:36;100151.81;;;12.30;76.76
16595;BME280;8410;52.532;13.336;2023-11-19T08:08:04;100155.34;;;12.04;78.29
16595;BME280;8410;52.532;13.336;2023-11-19T08:10:40;100172.41;;;12.42;76.09
16595;BME280;8410;52.532;13.336;2023-11-19T08:13:10;100162.28;;;11.65;77.90
16595;BME280;8410;52.532;13.336;2023-11-19T08:15:37;100146.66;;;12.30;77.67
16595;BME280;8410;52.532;13.336;2023-11-19T08:18:05;100134.47;;;12.53;76.20
16595;BME280;8410;52.532;13.336;2023-11-19T08:20:33;100140.56;;;12.43;76.48
16595;BME280;8410;52.532;13.336;2023-11-19T08:23:02;100144.69;;;12.78;76.25
16595;BME280;8410;52.532;13.336;2023-11-19T08:25:30;100151.06;;;11.99;76.64
16595;BME280;8410;52.532;13.336;2023-11-19T08:27:57;100124.91;;;12.71;76.56
16595;BME280;8410;52.532;13.336;2023-11-19T08:30:26;100125.78;;;12.73;76.78
16595;BME280;8410;52.532;13.336;2023-11-19T08:32:54;100124.81;;;12.85;76.51
16595;BME280;8410;52.532;13.336;2023-11-19T08:35:22;100126.69;;;12.63;75.81
16595;BME280;8410;52.532;13.336;2023-11-19T08:37:52;100117.69;;;13.17;75.43
16595;BME280;8410;52.532;13.336;2023-11-19T08:40:45;100108.81;;;13.49;75.19
16595;BME280;8410;52.532;13.336;2023-11-19T08:43:31;100107.13;;;13.48;74.47
16595;BME280;8410;52.532;13.336;2023-11-19T08:46:11;100109.66;;;13.53;75.21
16595;BME280;8410;52.532;13.336;2023-11-19T08:48:48;100111.59;;;13.23;75.06
16595;BME280;8410;52.532;13.336;2023-11-19T08:51:16;100105.56;;;13.27;75.35
16595;BME280;8410;52.532;13.336;2023-11-19T08:53:44;100113.22;;;13.42;75.74
16595;BME280;8410;52.532;13.336;2023-11-19T08:56:16;100104.59;;;13.40;76.05
16595;BME280;8410;52.532;13.336;2023-11-19T08:58:50;100113.84;;;12.50;76.46
16595;BME280;8410;52.532;13.336;2023-11-19T09:01:21;100107.31;;;13.23;77.51
16595;BME280;8410;52.532;13.336;2023-11-19T09:03:57;100101.97;;;13.43;76.08
16595;BME280;8410;52.532;13.336;2023-11-19T09:06:35;100095.75;;;13.63;75.47
16595;BME280;8410;52.532;13.336;2023-11-19T09:09:05;100107.84;;;13.58;75.13
16595;BME280;8410;52.532;13.336;2023-11-19T09:11:33;100121.81;;;13.44;76.44
16595;BME280;8410;52.532;13.336;2023-11-19T09:14:03;100121.38;;;13.84;76.02
16595;BME280;8410;52.532;13.336;2023-11-19T09:16:40;100116.91;;;14.00;76.82
16595;BME280;8410;52.532;13.336;2023-11-19T09:19:19;100129.88;;;13.97;75.83
16595;BME280;8410;52.532;13.336;2023-11-19T09:21:49;100104.75;;;14.05;77.66
16595;BME280;8410;52.532;13.336;2023-11-19T09:24:18;100111.66;;;14.06;76.53
16595;BME280;8410;52.532;13.336;2023-11-19T09:26:54;100124.41;;;14.23;76.48
16595;BME280;8410;52.532;13.336;2023-11-19T09:29:29;100118.59;;;14.04;81.69
16595;BME280;8410;52.532;13.336;2023-11-19T09:32:07;100101.22;;;14.79;78.21
16595;BME280;8410;52.532;13.336;2023-11-19T09:34:38;100101.16;;;14.84;79.52
16595;BME280;8410;52.532;13.336;2023-11-19T09:37:11;100110.50;;;14.92;77.89
16595;BME280;8410;52.532;13.336;2023-11-19T09:39:44;100092.88;;;15.16;79.70
16595;BME280;8410;52.532;13.336;2023-11-19T09:42:15;100107.66;;;15.09;75.05
16595;BME280;8410;52.532;13.336;2023-11-19T09:44:47;100096.19;;;15.22;77.65
16595;BME280;8410;52.532;13.336;2023-11-19T09:47:17;100079.59;;;15.33;74.34
16595;BME280;8410;52.532;13.336;2023-11-19T09:49:51;100090.63;;;15.44;76.34
16595;BME280;8410;52.532;13.336;2023-11-19T09:52:27;100081.06;;;15.94;75.15
16595;BME280;8410;52.532;13.336;2023-11-19T09:54:58;100072.81;;;15.74;75.13
16595;BME280;8410;52.532;13.336;2023-11-19T09:57:27;100074.25;;;16.30;73.39
16595;BME280;8410;52.532;13.336;2023-11-19T10:00:08;100078.72;;;16.22;74.10
16595;BME280;8410;52.532;13.336;2023-11-19T10:02:39;100087.09;;;15.96;72.57
16595;BME280;8410;52.532;13.336;2023-11-19T10:05:14;100081.47;;;15.25;76.01
16595;BME280;8410;52.532;13.336;2023-11-19T10:07:43;100083.69;;;16.33;72.34
16595;BME280;8410;52.532;13.336;2023-11-19T10:10:12;100080.63;;;16.16;74.82
16595;BME280;8410;52.532;13.336;2023-11-19T10:12:45;100077.16;;;16.56;75.36
16595;BME280;8410;52.532;13.336;2023-11-19T10:15:20;100066.69;;;16.59;71.94
16595;BME280;8410;52.532;13.336;2023-11-19T10:17:59;100076.25;;;15.76;74.44
16595;BME280;8410;52.532;13.336;2023-11-19T10:20:40;100079.09;;;15.60;74.85
16595;BME280;8410;52.532;13.336;2023-11-19T10:23:41;100076.19;;;16.21;75.80
16595;BME280;8410;52.532;13.336;2023-11-19T10:26:38;100075.88;;;16.36;73.88
16595;BME280;8410;52.532;13.336;2023-11-19T10:29:17;100077.56;;;16.37;74.87
16595;BME280;8410;52.532;13.336;2023-11-19T10:31:55;100068.50;;;16.16;74.93
16595;BME280;8410;52.532;13.336;2023-11-19T10:35:04;100057.25;;;16.16;73.31
16595;BME280;8410;52.532;13.336;2023-11-19T10:37:36;100052.59;;;16.69;73.47
16595;BME280;8410;52.532;13.336;2023-11-19T10:40:10;100045.81;;;16.62;73.81
16595;BME280;8410;52.532;13.336;2023-11-19T10:42:39;100054.34;;;16.31;75.03
16595;BME280;8410;52.532;13.336;2023-11-19T10:45:23;100050.66;;;16.41;74.36
16595;BME280;8410;52.532;13.336;2023-11-19T10:47:51;100045.34;;;16.05;75.67
16595;BME280;8410;52.532;13.336;2023-11-19T10:50:22;100036.16;;;16.29;76.86
16595;BME280;8410;52.532;13.336;2023-11-19T10:52:55;100046.78;;;16.19;76.87
16595;BME280;8410;52.532;13.336;2023-11-19T10:55:27;100052.00;;;16.19;78.70
16595;BME280;8410;52.532;13.336;2023-11-19T10:57:59;100045.97;;;16.17;77.48
16595;BME280;8410;52.532;13.336;2023-11-19T11:00:29;100043.41;;;16.15;77.08
16595;BME280;8410;52.532;13.336;2023-11-19T11:03:02;100045.16;;;16.15;77.40
16595;BME280;8410;52.532;13.336;2023-11-19T11:05:35;100048.25;;;15.92;77.63
16595;BME280;8410;52.532;13.336;2023-11-19T11:08:08;100053.16;;;14.58;83.63
16595;BME280;8410;52.532;13.336;2023-11-19T11:10:43;100049.16;;;14.93;83.64
16595;BME280;8410;52.532;13.336;2023-11-19T11:13:15;100042.94;;;15.51;81.79
16595;BME280;8410;52.532;13.336;2023-11-19T11:15:48;100031.44;;;16.09;79.21
16595;BME280;8410;52.532;13.336;2023-11-19T11:18:19;100037.56;;;16.05;77.37
16595;BME280;8410;52.532;13.336;2023-11-19T11:21:00;100041.81;;;16.09;76.81
16595;BME280;8410;52.532;13.336;2023-11-19T11:24:09;100030.75;;;16.78;76.86
16595;BME280;8410;52.532;13.336;2023-11-19T11:27:01;100031.16;;;16.22;77.24
16595;BME280;8410;52.532;13.336;2023-11-19T11:29:37;100040.09;;;15.65;78.93
16595;BME280;8410;52.532;13.336;2023-11-19T11:32:21;100030.72;;;16.40;77.24
16595;BME280;8410;52.532;13.336;2023-11-19T11:35:08;100030.06;;;16.32;76.63
16595;BME280;8410;52.532;13.336;2023-11-19T11:37:44;100022.25;;;16.32;75.59
16595;BME280;8410;52.532;13.336;2023-11-19T11:40:17;100029.06;;;15.99;77.13
16595;BME280;8410;52.532;13.336;2023-11-19T11:42:46;100024.75;;;16.37;78.33
16595;BME280;8410;52.532;13.336;2023-11-19T11:45:15;100030.53;;;16.49;76.00
16595;BME280;8410;52.532;13.336;2023-11-19T11:48:10;100036.69;;;16.06;78.70
16595;BME280;8410;52.532;13.336;2023-11-19T11:50:50;100040.28;;;15.99;78.33
16595;BME280;8410;52.532;13.336;2023-11-19T11:53:21;100036.19;;;15.87;79.27
16595;BME280;8410;52.532;13.336;2023-11-19T11:55:55;100030.94;;;16.31;77.66
16595;BME280;8410;52.532;13.336;2023-11-19T11:58:29;100039.13;;;15.71;80.17
16595;BME280;8410;52.532;13.336;2023-11-19T12:01:01;100027.16;;;16.07;78.27
16595;BME280;8410;52.532;13.336;2023-11-19T12:03:33;100025.13;;;16.59;77.12
16595;BME280;8410;52.532;13.336;2023-11-19T12:06:08;100028.44;;;16.26;77.93
16595;BME280;8410;52.532;13.336;2023-11-19T12:08:44;100031.38;;;16.87;76.17
16595;BME280;8410;52.532;13.336;2023-11-19T12:11:19;100036.03;;;15.95;78.31
16595;BME280;8410;52.532;13.336;2023-11-19T12:13:54;100035.00;;;16.04;78.96
16595;BME280;8410;52.532;13.336;2023-11-19T12:16:25;100037.19;;;15.82;79.32
16595;BME280;8410;52.532;13.336;2023-11-19T12:18:59;100037.09;;;15.85;80.09
16595;BME280;8410;52.532;13.336;2023-11-19T12:21:31;100033.78;;;15.80;78.38
16595;BME280;8410;52.532;13.336;2023-11-19T12:24:03;100029.31;;;16.27;78.65
16595;BME280;8410;52.532;13.336;2023-11-19T12:26:36;100025.69;;;16.71;76.15
16595;BME280;8410;52.532;13.336;2023-11-19T12:29:07;100020.84;;;16.56;76.33
16595;BME280;8410;52.532;13.336;2023-11-19T12:31:36;100027.69;;;15.81;79.84
16595;BME280;8410;52.532;13.336;2023-11-19T12:34:09;100024.13;;;15.85;80.65
16595;BME280;8410;52.532;13.336;2023-11-19T12:36:40;100027.63;;;15.84;79.35
16595;BME280;8410;52.532;13.336;2023-11-19T12:39:11;100019.84;;;15.84;79.42
16595;BME280;8410;52.532;13.336;2023-11-19T12:41:52;100022.06;;;16.02;77.24
16595;BME280;8410;52.532;13.336;2023-11-19T12:44:23;100018.16;;;16.22;78.36
16595;BME280;8410;52.532;13.336;2023-11-19T12:47:07;100022.91;;;16.42;78.51
16595;BME280;8410;52.532;13.336;2023-11-19T12:49:40;100024.91;;;16.30;77.13
16595;BME280;8410;52.532;13.336;2023-11-19T12:52:22;100034.03;;;16.09;78.67
16595;BME280;8410;52.532;13.336;2023-11-19T12:54:58;100036.78;;;16.78;75.59
16595;BME280;8410;52.532;13.336;2023-11-19T12:57:40;100053.06;;;15.18;79.71
16595;BME280;8410;52.532;13.336;2023-11-19T13:00:19;100042.47;;;15.77;79.80
16595;BME280;8410;52.532;13.336;2023-11-19T13:02:54;100037.53;;;16.07;77.63
16595;BME280;8410;52.532;13.336;2023-11-19T13:05:40;100029.13;;;16.36;75.70
16595;BME280;8410;52.532;13.336;2023-11-19T13:08:09;100023.41;;;16.20;76.34